Main page
METAR-TAF:

METAR-TAF

Airports :

Bahrain International Airport

Bahrain, Bahrain

latitude: 26-16N, longitude: 050-39E, elevation: 2 m

Current weather observation

The report was made 30 minutes ago, at 01:00 UTC
Wind 10 kt from the Southeast
Temperature 27°C
Humidity 54%
Pressure 1007 hPa
Visibility 10 km or more
no clouds below 1500 m and no cumulonimbus

METAR: OBBI 190100Z 14010KT CAVOK 27/17 Q1007 NOSIG

Time: 04:30 (01:30 UTC)

Forecast

The report was made 2 hours and 30 minutes ago, at 23:00 UTC
Forecast valid from 19 at 00 UTC to 20 at 06 UTC
Wind 12 kt from the Southeast
Visibility 10 km or more
no clouds below 1500 m and no cumulonimbus
Becoming
from 19 at 14 UTC to 19 at 16 UTC
Wind 10 kt from the Northeast

TAF: OBBI 182300Z 1900/2006 13012KT CAVOK BECMG 1914/1916 04010KT

Weather observations and forecasts of more than 4000 airports (METAR and TAF reports).

The available stations are represented by yellow and red dots on the map.

Hover mouse over dot to see the name of the station.

Then click to see weather observations and forecasts.

To change the map : click on the green buttons with a black cross to zoom in, on the green button with a dash to zoom out, or on the green arrows for adjacent maps.


METAR-TAF: